Time;durP1;ratioP1;P1;durP2;ratioP2;P2;SDS_P1;SDS_P2;PMS_P1;PMS_P2;Temp;Humidity;BMP_temperature;BMP_pressure;BME280_temperature;BME280_humidity;BME280_pressure;Samples;Min_cycle;Max_cycle;Signal;HPM_P1;HPM_P2
2022/09/11 00:00:26;;;;;;;988.17;914.57;;;;;;;;;;10422534;28;20128;-91
2022/09/11 00:05:29;;;;;;;1010.78;925.38;;;;;;;;;;10425908;28;20454;-91
2022/09/11 00:10:30;;;;;;;1007.55;923.05;;;;;;;;;;10425835;28;20033;-92
2022/09/11 00:15:34;;;;;;;1029.60;944.17;;;;;;;;;;10417174;28;20055;-91
2022/09/11 00:20:35;;;;;;;11.60;6.30;;;;;;;;;;10420057;28;20102;-90
2022/09/11 00:25:36;;;;;;;14.13;6.57;;;;;;;;;;10434081;28;20032;-91
2022/09/11 00:30:36;;;;;;;15.38;6.70;;;;;;;;;;10415804;28;20399;-92
2022/09/11 00:35:38;;;;;;;10.40;6.70;;;;;;;;;;10419444;28;20021;-92
2022/09/11 00:40:45;;;;;;;13.02;7.40;;;;;;;;;;10409428;28;20032;-91
2022/09/11 00:45:47;;;;;;;10.37;6.67;;;;;;;;;;10414814;28;20491;-91
2022/09/11 00:50:49;;;;;;;12.80;7.78;;;;;;;;;;10418424;28;20016;-91
2022/09/11 00:55:55;;;;;;;13.10;7.38;;;;;;;;;;10415047;28;20025;-92
2022/09/11 01:00:57;;;;;;;12.35;7.85;;;;;;;;;;10390992;28;20049;-92
2022/09/11 01:05:58;;;;;;;10.77;6.73;;;;;;;;;;10418671;28;20037;-90
2022/09/11 01:11:17;;;;;;;15.23;7.18;;;;;;;;;;10414495;28;20025;-91
2022/09/11 01:16:32;;;;;;;10.60;6.85;;;;;;;;;;10432143;28;20045;-91
2022/09/11 01:21:51;;;;;;;8.93;5.78;;;;;;;;;;10436112;28;20444;-91
2022/09/11 01:26:51;;;;;;;11.73;6.55;;;;;;;;;;10416021;28;20025;-91
2022/09/11 01:32:01;;;;;;;11.93;6.80;;;;;;;;;;10416863;28;20422;-91
2022/09/11 01:37:06;;;;;;;12.20;6.38;;;;;;;;;;10401788;28;20052;-91
2022/09/11 01:42:12;;;;;;;11.30;7.25;;;;;;;;;;10431686;28;20045;-91
2022/09/11 01:47:14;;;;;;;13.00;7.28;;;;;;;;;;10387439;28;20025;-90
2022/09/11 01:52:16;;;;;;;9.02;5.88;;;;;;;;;;10385502;28;20462;-91
2022/09/11 01:57:29;;;;;;;10.95;5.93;;;;;;;;;;10335164;28;20050;-91
2022/09/11 02:02:37;;;;;;;13.95;6.00;;;;;;;;;;10414953;28;20029;-90
2022/09/11 02:07:42;;;;;;;9.63;6.63;;;;;;;;;;10425517;28;20347;-91
2022/09/11 02:12:46;;;;;;;8.93;5.72;;;;;;;;;;10439400;28;20052;-91
2022/09/11 02:17:50;;;;;;;7.70;5.45;;;;;;;;;;10390403;28;20049;-90
2022/09/11 02:22:51;;;;;;;16.05;8.40;;;;;;;;;;10410872;28;20132;-91
2022/09/11 02:27:53;;;;;;;11.73;6.20;;;;;;;;;;10394483;28;20021;-91
2022/09/11 02:32:53;;;;;;;17.40;6.97;;;;;;;;;;10394943;28;20463;-91
2022/09/11 02:38:00;;;;;;;17.33;6.72;;;;;;;;;;10390261;28;20098;-91
2022/09/11 02:43:19;;;;;;;14.18;6.15;;;;;;;;;;10404071;28;20029;-91
2022/09/11 02:48:38;;;;;;;9.70;6.70;;;;;;;;;;10419892;28;20520;-90
2022/09/11 02:53:45;;;;;;;9.05;6.05;;;;;;;;;;10425115;28;20111;-91
2022/09/11 02:58:47;;;;;;;11.53;6.93;;;;;;;;;;10407377;28;20037;-90
2022/09/11 03:03:47;;;;;;;14.00;6.95;;;;;;;;;;10398316;28;20021;-90
2022/09/11 03:08:48;;;;;;;16.67;6.30;;;;;;;;;;10422456;28;20025;-91
2022/09/11 03:13:48;;;;;;;11.93;7.70;;;;;;;;;;10418624;28;20371;-90
2022/09/11 03:18:48;;;;;;;21.15;8.15;;;;;;;;;;10386588;28;20181;-90
2022/09/11 03:23:49;;;;;;;13.82;7.55;;;;;;;;;;10380447;28;20535;-91
2022/09/11 03:28:49;;;;;;;15.57;7.40;;;;;;;;;;10367884;28;20097;-91
2022/09/11 03:33:50;;;;;;;13.40;7.60;;;;;;;;;;10338617;28;20088;-91
2022/09/11 03:38:51;;;;;;;18.70;9.00;;;;;;;;;;10388070;28;20052;-91
2022/09/11 03:43:51;;;;;;;14.48;8.63;;;;;;;;;;10376918;28;20017;-92
2022/09/11 03:48:52;;;;;;;13.05;7.28;;;;;;;;;;10396369;28;20083;-91
2022/09/11 03:53:53;;;;;;;11.85;7.32;;;;;;;;;;10379769;28;20025;-91
2022/09/11 03:58:55;;;;;;;13.73;7.87;;;;;;;;;;10376091;28;20029;-91
2022/09/11 04:03:56;;;;;;;13.80;8.52;;;;;;;;;;10393102;28;20068;-91
2022/09/11 04:08:56;;;;;;;13.70;8.18;;;;;;;;;;10379413;28;20116;-92
2022/09/11 04:13:58;;;;;;;17.00;8.68;;;;;;;;;;10377048;28;20108;-90
2022/09/11 04:18:58;;;;;;;15.65;9.23;;;;;;;;;;10428484;28;20415;-91
2022/09/11 04:23:59;;;;;;;19.63;8.25;;;;;;;;;;10417757;28;20024;-91
2022/09/11 04:29:00;;;;;;;14.27;8.20;;;;;;;;;;10415892;28;20447;-92
2022/09/11 04:34:00;;;;;;;21.52;8.10;;;;;;;;;;10419718;28;20111;-91
2022/09/11 04:39:00;;;;;;;13.43;8.85;;;;;;;;;;10434606;28;20029;-90
2022/09/11 04:44:01;;;;;;;18.45;8.98;;;;;;;;;;10424137;28;20095;-91
2022/09/11 04:49:01;;;;;;;25.30;12.90;;;;;;;;;;10423270;28;20032;-91
2022/09/11 04:54:02;;;;;;;13.32;8.32;;;;;;;;;;10420463;28;20017;-91
2022/09/11 04:59:08;;;;;;;16.45;8.63;;;;;;;;;;10415786;28;20044;-91
2022/09/11 05:04:12;;;;;;;16.60;8.30;;;;;;;;;;10381562;28;20025;-93
2022/09/11 05:09:21;;;;;;;15.43;7.80;;;;;;;;;;10422154;28;20021;-93
2022/09/11 05:14:21;;;;;;;11.68;7.75;;;;;;;;;;10430048;28;20159;-92
2022/09/11 05:19:21;;;;;;;14.90;8.55;;;;;;;;;;10376802;28;20049;-91
2022/09/11 05:24:22;;;;;;;15.40;8.47;;;;;;;;;;10376914;28;20024;-92
2022/09/11 05:29:22;;;;;;;17.13;9.07;;;;;;;;;;10373292;28;20103;-89
2022/09/11 05:34:23;;;;;;;16.27;10.10;;;;;;;;;;10375448;28;20030;-90
2022/09/11 05:39:23;;;;;;;21.27;9.02;;;;;;;;;;10340825;28;20022;-92
2022/09/11 05:44:23;;;;;;;12.40;7.93;;;;;;;;;;10334310;28;20398;-91
2022/09/11 05:49:24;;;;;;;16.37;8.27;;;;;;;;;;10337256;28;20534;-92
2022/09/11 05:54:24;;;;;;;14.80;8.45;;;;;;;;;;10377845;28;20032;-92
2022/09/11 05:59:26;;;;;;;14.20;7.40;;;;;;;;;;10399370;28;20029;-91
2022/09/11 06:04:26;;;;;;;11.57;7.30;;;;;;;;;;10373552;28;20369;-91
2022/09/11 06:09:27;;;;;;;12.23;6.70;;;;;;;;;;10365056;28;20018;-90
2022/09/11 06:14:28;;;;;;;17.60;7.73;;;;;;;;;;10332116;28;20022;-90
2022/09/11 06:19:28;;;;;;;10.95;6.68;;;;;;;;;;10347158;28;20042;-90
2022/09/11 06:24:28;;;;;;;16.88;8.77;;;;;;;;;;10334976;28;20116;-90
2022/09/11 06:29:31;;;;;;;17.33;8.82;;;;;;;;;;10333914;28;20018;-91
2022/09/11 06:34:31;;;;;;;16.25;7.07;;;;;;;;;;10372444;28;20041;-91
2022/09/11 06:39:33;;;;;;;15.98;8.10;;;;;;;;;;10368821;28;20145;-91
2022/09/11 06:44:33;;;;;;;15.55;7.00;;;;;;;;;;10369179;28;20447;-90
2022/09/11 06:49:34;;;;;;;11.50;7.90;;;;;;;;;;10397845;28;20029;-92
2022/09/11 06:54:35;;;;;;;13.43;7.27;;;;;;;;;;10346056;28;20025;-91
2022/09/11 06:59:35;;;;;;;10.05;6.00;;;;;;;;;;10346838;28;20036;-95
2022/09/11 07:04:35;;;;;;;12.83;6.50;;;;;;;;;;10352689;28;20484;-90
2022/09/11 07:09:36;;;;;;;7.97;5.43;;;;;;;;;;10345196;28;20048;-90
2022/09/11 07:14:37;;;;;;;6.93;4.90;;;;;;;;;;10346977;28;20484;-91
2022/09/11 07:19:37;;;;;;;6.63;4.60;;;;;;;;;;10376163;28;20464;-90
2022/09/11 07:24:41;;;;;;;5.28;3.60;;;;;;;;;;10382037;28;20187;-95
2022/09/11 07:29:43;;;;;;;6.70;3.83;;;;;;;;;;10382791;28;20102;-96
2022/09/11 07:34:45;;;;;;;8.00;4.05;;;;;;;;;;10384272;28;20528;-94
2022/09/11 07:39:51;;;;;;;11.18;3.88;;;;;;;;;;10347855;28;20547;-96
2022/09/11 07:44:51;;;;;;;4.50;3.57;;;;;;;;;;10382956;28;20013;-94
2022/09/11 07:49:54;;;;;;;4.27;3.43;;;;;;;;;;10382717;28;20028;-94
2022/09/11 07:54:55;;;;;;;5.65;3.47;;;;;;;;;;10382494;28;20477;-93
2022/09/11 07:59:55;;;;;;;8.90;3.67;;;;;;;;;;10347945;28;20101;-93
2022/09/11 08:04:56;;;;;;;5.63;3.87;;;;;;;;;;10364750;28;20104;-95
2022/09/11 08:15:34;;;;;;;6.00;4.05;;;;;;;;;;10408216;28;20056;-94
2022/09/11 08:20:34;;;;;;;10.03;4.77;;;;;;;;;;10425760;28;20065;-94
2022/09/11 08:25:36;;;;;;;5.30;4.30;;;;;;;;;;10425131;28;20650;-93
2022/09/11 08:30:37;;;;;;;7.40;5.22;;;;;;;;;;10425077;28;20029;-94
2022/09/11 08:35:37;;;;;;;9.05;4.38;;;;;;;;;;10426352;28;20029;-94
2022/09/11 08:46:17;;;;;;;6.93;3.90;;;;;;;;;;10445484;28;20025;-93
2022/09/11 08:51:18;;;;;;;7.30;5.30;;;;;;;;;;10424725;28;20025;-94
2022/09/11 08:56:21;;;;;;;8.15;5.43;;;;;;;;;;10422354;28;20501;-94
2022/09/11 09:01:42;;;;;;;7.20;5.65;;;;;;;;;;10423810;28;20116;-93
2022/09/11 09:06:54;;;;;;;13.73;5.82;;;;;;;;;;10428553;28;20024;-93
2022/09/11 09:12:05;;;;;;;7.97;5.05;;;;;;;;;;10425473;28;20549;-94
2022/09/11 09:17:15;;;;;;;7.63;5.43;;;;;;;;;;10420712;28;20049;-93
2022/09/11 09:27:59;;;;;;;6.60;5.05;;;;;;;;;;10432213;28;20025;-93
2022/09/11 09:33:19;;;;;;;10.52;5.95;;;;;;;;;;10382615;28;20026;-93
2022/09/11 09:44:15;;;;;;;6.00;5.00;;;;;;;;;;10440462;28;20403;-94
2022/09/11 09:49:17;;;;;;;10.55;4.85;;;;;;;;;;10425351;28;20025;-94
2022/09/11 09:54:39;;;;;;;9.07;4.53;;;;;;;;;;10427280;28;20216;-94
2022/09/11 09:59:42;;;;;;;5.43;4.03;;;;;;;;;;10398271;28;20025;-94
2022/09/11 10:04:42;;;;;;;8.45;3.92;;;;;;;;;;10385022;28;20105;-94
2022/09/11 10:09:50;;;;;;;6.18;3.20;;;;;;;;;;10402212;28;20575;-94
2022/09/11 10:14:52;;;;;;;4.60;2.70;;;;;;;;;;10432944;28;20470;-94
2022/09/11 10:20:13;;;;;;;5.57;3.47;;;;;;;;;;10391317;28;20140;-93
2022/09/11 10:25:21;;;;;;;4.72;3.40;;;;;;;;;;10362798;28;20036;-94
2022/09/11 10:30:35;;;;;;;4.10;3.05;;;;;;;;;;10383091;28;20025;-95
2022/09/11 10:35:36;;;;;;;8.43;2.40;;;;;;;;;;10417713;28;20025;-95
2022/09/11 10:46:18;;;;;;;4.63;2.55;;;;;;;;;;10454420;28;20017;-95
2022/09/11 10:57:04;;;;;;;4.00;2.60;;;;;;;;;;10403008;28;20053;-95
2022/09/11 11:02:37;;;;;;;3.53;2.53;;;;;;;;;;10425041;28;20018;-95
2022/09/11 11:08:04;;;;;;;6.60;4.18;;;;;;;;;;10320270;28;20043;-93
2022/09/11 11:13:28;;;;;;;8.73;3.22;;;;;;;;;;10414180;28;20033;-94
2022/09/11 11:20:48;;;;;;;6.27;3.00;;;;;;;;;;10532897;27;1367043;-88
2022/09/11 11:26:07;;;;;;;5.72;3.30;;;;;;;;;;10523824;28;20486;-82
2022/09/11 11:31:27;;;;;;;6.18;4.90;;;;;;;;;;10528384;28;20448;-84
2022/09/11 11:36:28;;;;;;;7.65;5.30;;;;;;;;;;10507886;28;20020;-81
2022/09/11 11:41:43;;;;;;;7.30;4.20;;;;;;;;;;10523862;28;20119;-87
2022/09/11 11:46:54;;;;;;;5.82;4.93;;;;;;;;;;10534146;28;20024;-76
2022/09/11 11:51:59;;;;;;;6.85;4.95;;;;;;;;;;10543421;28;20040;-79
2022/09/11 11:57:19;;;;;;;7.35;5.53;;;;;;;;;;10519730;28;20024;-77
2022/09/11 12:02:20;;;;;;;6.53;4.95;;;;;;;;;;10490587;28;20520;-76
2022/09/11 12:07:32;;;;;;;7.22;4.95;;;;;;;;;;10491903;28;20044;-79
2022/09/11 12:12:34;;;;;;;6.43;4.70;;;;;;;;;;10487336;28;20081;-82
2022/09/11 12:17:35;;;;;;;6.15;4.90;;;;;;;;;;10497706;28;20394;-82
2022/09/11 12:22:37;;;;;;;7.30;4.32;;;;;;;;;;10525148;28;20043;-82
2022/09/11 12:27:38;;;;;;;7.70;4.82;;;;;;;;;;10501531;28;20028;-82
2022/09/11 12:32:45;;;;;;;7.10;5.07;;;;;;;;;;10477578;28;20012;-82
2022/09/11 12:38:04;;;;;;;11.77;4.72;;;;;;;;;;10485409;28;20055;-81
2022/09/11 12:43:23;;;;;;;7.85;5.05;;;;;;;;;;10554782;28;20057;-83
2022/09/11 12:48:42;;;;;;;10.48;5.38;;;;;;;;;;10522906;28;20059;-84
2022/09/11 12:53:43;;;;;;;8.10;5.53;;;;;;;;;;10470983;28;20029;-81
2022/09/11 12:58:46;;;;;;;7.88;4.63;;;;;;;;;;10499209;28;20020;-79
2022/09/11 13:03:49;;;;;;;8.88;4.50;;;;;;;;;;10541723;28;20020;-81
2022/09/11 13:08:52;;;;;;;9.98;5.53;;;;;;;;;;10499549;28;20017;-84
2022/09/11 13:13:53;;;;;;;5.47;4.70;;;;;;;;;;10477480;28;20028;-79
2022/09/11 13:19:02;;;;;;;4.90;4.30;;;;;;;;;;10484519;28;20048;-78
2022/09/11 13:24:02;;;;;;;5.10;4.18;;;;;;;;;;10480904;28;20046;-81
2022/09/11 13:29:03;;;;;;;6.70;4.82;;;;;;;;;;10492633;28;20111;-82
2022/09/11 13:34:05;;;;;;;5.57;4.60;;;;;;;;;;10475938;28;20034;-79
2022/09/11 13:39:06;;;;;;;8.57;5.68;;;;;;;;;;10475444;28;20575;-84
2022/09/11 13:44:10;;;;;;;9.88;5.97;;;;;;;;;;10496453;28;20092;-83
2022/09/11 13:49:10;;;;;;;6.68;5.22;;;;;;;;;;10473917;28;20030;-83
2022/09/11 13:54:40;;;;;;;9.82;5.70;;;;;;;;;;10483424;28;20085;-76
2022/09/11 13:59:48;;;;;;;6.82;4.85;;;;;;;;;;10499969;28;20037;-82
2022/09/11 14:05:00;;;;;;;8.60;4.88;;;;;;;;;;10483719;28;20012;-77
2022/09/11 14:10:05;;;;;;;19.95;10.65;;;;;;;;;;10500244;28;20096;-82
2022/09/11 14:15:09;;;;;;;19.30;10.45;;;;;;;;;;10494313;28;20111;-80
2022/09/11 14:20:15;;;;;;;9.68;5.50;;;;;;;;;;10488060;28;20072;-83
2022/09/11 14:25:25;;;;;;;11.35;4.90;;;;;;;;;;10476310;28;20115;-91
2022/09/11 14:30:33;;;;;;;6.35;4.97;;;;;;;;;;10517483;28;20072;-85
2022/09/11 14:35:34;;;;;;;5.97;4.45;;;;;;;;;;10520648;28;20070;-84
2022/09/11 14:40:35;;;;;;;8.88;5.28;;;;;;;;;;10500870;28;20035;-75
2022/09/11 14:45:35;;;;;;;7.55;5.50;;;;;;;;;;10470794;28;20054;-79
2022/09/11 14:50:36;;;;;;;5.85;4.45;;;;;;;;;;10482115;28;20016;-76
2022/09/11 14:55:36;;;;;;;7.63;4.65;;;;;;;;;;10495269;28;20054;-74
2022/09/11 15:00:36;;;;;;;6.45;4.40;;;;;;;;;;10507687;28;20095;-76
2022/09/11 15:05:37;;;;;;;4.72;4.20;;;;;;;;;;10487976;22;20605;-78
2022/09/11 15:10:38;;;;;;;7.65;4.28;;;;;;;;;;10347202;28;20034;-74
2022/09/11 15:15:39;;;;;;;5.88;4.13;;;;;;;;;;10364458;28;20030;-78
2022/09/11 15:20:39;;;;;;;8.05;4.13;;;;;;;;;;10372396;23;20053;-80
2022/09/11 15:25:39;;;;;;;8.05;4.75;;;;;;;;;;10409585;28;20519;-79
2022/09/11 15:30:41;;;;;;;4.97;3.88;;;;;;;;;;10388636;28;20582;-81
2022/09/11 15:35:42;;;;;;;6.10;4.85;;;;;;;;;;10405983;28;20018;-79
2022/09/11 15:40:44;;;;;;;6.57;4.85;;;;;;;;;;10387763;28;20017;-84
2022/09/11 15:45:44;;;;;;;6.32;4.20;;;;;;;;;;10404982;28;20503;-79
2022/09/11 15:50:44;;;;;;;7.35;4.10;;;;;;;;;;10404145;28;20017;-81
2022/09/11 15:55:44;;;;;;;8.20;4.50;;;;;;;;;;10386899;28;20026;-80
2022/09/11 16:00:45;;;;;;;10.10;6.68;;;;;;;;;;10405580;28;20031;-80
2022/09/11 16:05:46;;;;;;;8.87;3.73;;;;;;;;;;10391567;28;20018;-80
2022/09/11 16:10:46;;;;;;;11.63;7.55;;;;;;;;;;10413630;28;20599;-79
2022/09/11 16:15:48;;;;;;;54.13;49.72;;;;;;;;;;10394507;28;20018;-80
2022/09/11 16:20:57;;;;;;;12.35;7.00;;;;;;;;;;10421368;28;20495;-77
2022/09/11 16:26:00;;;;;;;14.55;12.48;;;;;;;;;;10394090;28;20072;-79
2022/09/11 16:31:01;;;;;;;21.73;10.52;;;;;;;;;;10392899;28;20033;-78
2022/09/11 16:36:04;;;;;;;36.20;32.80;;;;;;;;;;10390715;28;20033;-78
2022/09/11 16:41:11;;;;;;;38.83;35.22;;;;;;;;;;10377824;28;20160;-80
2022/09/11 16:46:12;;;;;;;132.18;123.82;;;;;;;;;;10395440;28;20032;-86
2022/09/11 16:51:13;;;;;;;390.27;364.33;;;;;;;;;;10377211;28;20502;-80
2022/09/11 16:56:15;;;;;;;191.57;179.77;;;;;;;;;;10378921;28;20526;-86
2022/09/11 17:01:17;;;;;;;262.10;245.68;;;;;;;;;;10377100;28;20499;-80
2022/09/11 17:06:19;;;;;;;405.58;378.08;;;;;;;;;;10757505;23;20020;-80
2022/09/11 17:11:20;;;;;;;515.85;481.67;;;;;;;;;;10370339;28;20380;-79
2022/09/11 17:16:22;;;;;;;380.73;356.95;;;;;;;;;;10379407;28;20424;-82
2022/09/11 17:21:23;;;;;;;440.45;412.67;;;;;;;;;;10377863;28;20025;-80
2022/09/11 17:26:24;;;;;;;480.88;450.15;;;;;;;;;;10396892;28;20033;-82
2022/09/11 17:31:24;;;;;;;557.25;520.42;;;;;;;;;;10383725;28;20029;-79
2022/09/11 17:36:25;;;;;;;660.47;614.53;;;;;;;;;;10384056;28;20041;-80
2022/09/11 17:41:27;;;;;;;662.83;616.92;;;;;;;;;;10384562;28;20017;-84
2022/09/11 17:46:28;;;;;;;862.97;800.80;;;;;;;;;;10376446;28;20036;-81
2022/09/11 17:51:28;;;;;;;626.55;583.33;;;;;;;;;;10381573;28;20392;-80
2022/09/11 17:56:31;;;;;;;683.67;635.80;;;;;;;;;;10385319;28;20021;-83
2022/09/11 18:01:39;;;;;;;800.38;742.15;;;;;;;;;;10384233;28;20104;-83
2022/09/11 18:06:40;;;;;;;974.28;900.22;;;;;;;;;;10389323;28;20053;-80
2022/09/11 18:11:42;;;;;;;1018.40;932.97;;;;;;;;;;10374760;28;20155;-81
2022/09/11 18:16:46;;;;;;;843.42;780.70;;;;;;;;;;10377391;28;20040;-81
2022/09/11 18:21:50;;;;;;;946.75;876.85;;;;;;;;;;10390695;28;20480;-80
2022/09/11 18:26:51;;;;;;;1024.00;944.42;;;;;;;;;;10387224;28;20034;-80
2022/09/11 18:31:52;;;;;;;904.92;838.38;;;;;;;;;;10377972;28;20084;-82
2022/09/11 18:37:01;;;;;;;1014.15;918.25;;;;;;;;;;10379752;28;20381;-85
2022/09/11 18:42:05;;;;;;;1040.43;951.30;;;;;;;;;;10390067;28;20025;-79
2022/09/11 18:47:16;;;;;;;1046.80;952.50;;;;;;;;;;10392626;28;20021;-83
2022/09/11 18:52:23;;;;;;;1021.92;931.60;;;;;;;;;;10363959;28;20464;-83
2022/09/11 18:57:25;;;;;;;1030.95;941.67;;;;;;;;;;10411247;28;20109;-82
2022/09/11 19:02:32;;;;;;;1037.20;951.72;;;;;;;;;;10407055;28;20488;-82
2022/09/11 19:07:33;;;;;;;1027.18;943.08;;;;;;;;;;10386232;28;20049;-79
2022/09/11 19:12:41;;;;;;;1023.30;942.03;;;;;;;;;;10369717;28;20056;-85
2022/09/11 19:17:41;;;;;;;1040.28;953.70;;;;;;;;;;10381343;28;20036;-84
2022/09/11 19:22:41;;;;;;;1045.63;955.37;;;;;;;;;;10351370;28;20390;-84
2022/09/11 19:27:41;;;;;;;1041.72;951.30;;;;;;;;;;10379902;28;20499;-77
2022/09/11 19:32:42;;;;;;;1022.05;939.33;;;;;;;;;;10375881;28;20369;-80
2022/09/11 19:37:42;;;;;;;1034.25;951.00;;;;;;;;;;10392105;28;20049;-81
2022/09/11 19:42:43;;;;;;;1026.85;943.47;;;;;;;;;;10387362;28;20025;-81
2022/09/11 19:47:46;;;;;;;1032.80;955.05;;;;;;;;;;10390167;28;20025;-83
2022/09/11 19:52:52;;;;;;;1057.05;977.08;;;;;;;;;;10402188;28;20105;-77
2022/09/11 19:58:05;;;;;;;1030.18;952.72;;;;;;;;;;10395738;28;20527;-83
2022/09/11 20:03:07;;;;;;;1019.50;940.70;;;;;;;;;;10398327;28;20024;-80
2022/09/11 20:08:21;;;;;;;1025.72;948.13;;;;;;;;;;10390768;28;20045;-78
2022/09/11 20:13:23;;;;;;;1012.85;931.70;;;;;;;;;;10386316;28;20506;-86
2022/09/11 20:18:23;;;;;;;1039.10;956.25;;;;;;;;;;10403318;28;20026;-83
2022/09/11 20:23:23;;;;;;;1044.87;956.30;;;;;;;;;;10380166;28;20075;-82
2022/09/11 20:28:39;;;;;;;1024.10;942.78;;;;;;;;;;10397143;28;20108;-86
2022/09/11 20:33:40;;;;;;;1035.78;951.25;;;;;;;;;;10377363;28;20025;-77
2022/09/11 20:38:52;;;;;;;1031.85;944.15;;;;;;;;;;10417812;28;20044;-79
2022/09/11 20:44:14;;;;;;;1047.73;955.33;;;;;;;;;;10402353;28;20086;-78
2022/09/11 20:49:23;;;;;;;1042.90;953.25;;;;;;;;;;10432450;28;20321;-80
2022/09/11 20:54:24;;;;;;;1022.70;929.60;;;;;;;;;;10415132;28;20138;-82
2022/09/11 20:59:24;;;;;;;1032.95;939.15;;;;;;;;;;10392201;28;20027;-82
2022/09/11 21:04:25;;;;;;;1046.65;954.20;;;;;;;;;;10399398;28;20026;-79
2022/09/11 21:09:27;;;;;;;1036.05;941.47;;;;;;;;;;10405069;28;20169;-84
2022/09/11 21:14:27;;;;;;;1040.68;947.97;;;;;;;;;;10393880;28;20037;-84
2022/09/11 21:19:27;;;;;;;1031.30;935.08;;;;;;;;;;10388671;28;20033;-84
2022/09/11 21:24:29;;;;;;;1034.38;941.17;;;;;;;;;;10404397;28;20052;-82
2022/09/11 21:29:47;;;;;;;1011.25;920.70;;;;;;;;;;10401119;28;20491;-78
2022/09/11 21:34:48;;;;;;;1059.70;963.35;;;;;;;;;;10401306;28;20029;-83
2022/09/11 21:39:49;;;;;;;1033.80;939.63;;;;;;;;;;10379804;28;20503;-82
2022/09/11 21:44:49;;;;;;;1047.47;950.92;;;;;;;;;;10416400;28;20040;-82
2022/09/11 21:49:50;;;;;;;1034.18;943.10;;;;;;;;;;10384683;28;20033;-81
2022/09/11 21:54:53;;;;;;;1014.65;923.22;;;;;;;;;;10386595;28;20045;-85
2022/09/11 21:59:54;;;;;;;1068.97;971.30;;;;;;;;;;10403899;28;20037;-82
2022/09/11 22:04:58;;;;;;;1051.88;957.13;;;;;;;;;;10387191;28;20053;-80
2022/09/11 22:10:11;;;;;;;1026.78;931.47;;;;;;;;;;10401886;28;20129;-80
2022/09/11 22:15:12;;;;;;;1032.65;936.17;;;;;;;;;;10384598;28;20033;-83
2022/09/11 22:20:13;;;;;;;1044.22;945.60;;;;;;;;;;10384852;28;20022;-83
2022/09/11 22:25:15;;;;;;;1008.70;910.97;;;;;;;;;;10412121;28;20064;-85
2022/09/11 22:30:23;;;;;;;1008.33;911.08;;;;;;;;;;10400728;28;20032;-77
2022/09/11 22:35:42;;;;;;;1011.75;913.47;;;;;;;;;;10441228;28;20025;-82
2022/09/11 22:40:46;;;;;;;996.92;897.90;;;;;;;;;;10382581;28;20030;-83
2022/09/11 22:46:06;;;;;;;1005.22;905.92;;;;;;;;;;10388461;28;20026;-78
2022/09/11 22:51:08;;;;;;;1004.47;905.13;;;;;;;;;;10410788;28;20018;-82
2022/09/11 22:56:09;;;;;;;1043.35;941.40;;;;;;;;;;10404059;28;20066;-85
2022/09/11 23:01:12;;;;;;;1025.57;924.70;;;;;;;;;;10424282;28;20010;-79
2022/09/11 23:11:51;;;;;;;1014.88;914.67;;;;;;;;;;10403884;28;20050;-81
2022/09/11 23:16:51;;;;;;;1015.30;915.33;;;;;;;;;;10375773;28;20551;-78
2022/09/11 23:21:51;;;;;;;1013.58;913.53;;;;;;;;;;10365698;28;20033;-80
2022/09/11 23:26:52;;;;;;;992.65;893.95;;;;;;;;;;10376705;28;20522;-82
2022/09/11 23:31:54;;;;;;;1009.90;910.20;;;;;;;;;;10388580;28;20047;-82
2022/09/11 23:36:54;;;;;;;1022.45;921.67;;;;;;;;;;10389209;28;20028;-81
2022/09/11 23:41:55;;;;;;;1014.42;914.22;;;;;;;;;;10387692;28;20017;-77
2022/09/11 23:46:56;;;;;;;994.90;895.53;;;;;;;;;;10387725;28;20033;-81
2022/09/11 23:51:56;;;;;;;1020.42;920.10;;;;;;;;;;10371344;28;20018;-78
2022/09/11 23:56:57;;;;;;;1016.95;916.45;;;;;;;;;;10387710;28;20021;-81
